Flight Track Log - Related Links

Times and Time Zones

All times are in EDT time to prevent confusion due to time zone crossing. See the SWA1719 flight status page for this flight to view local times or setup timezone preferences in your user account.

Time Position Orientation Groundspeed Altitude Reporting Facility
EDT Latitude Longitude Course Direction KTS MPH feet Rate Location/Type
Tue 11:55:16 AM 29.6333 -95.2894 194° South 106 122 600  Level Houston Center
Tue 11:55:40 AM 29.6236 -95.2922 194° South 140 161 1,300 1,814 Climbing Houston Center
Tue 11:56:42 AM 29.5850 -95.2589 143° Southeast 191 220 3,200 2,565 Climbing Houston Center
Tue 11:57:44 AM 29.5783 -95.1775 95° East 244 281 6,600 3,097 Climbing Houston Center
Tue 11:58:46 AM 29.5933 -95.0889 79° East 291 335 9,600 2,710 Climbing Houston Center
Tue 11:59:48 AM 29.6114 -94.9875 78° East 321 369 12,200 3,024 Climbing Houston Center
Tue 12:00:51 PM 29.6347 -94.8519 79° East 358 412 15,900 2,976 Climbing Houston Center
Tue 12:01:53 PM 29.6550 -94.7314 79° East 379 436 18,400 2,516 Climbing Houston Center
Tue 12:02:55 PM 29.6769 -94.6022 79° East 406 467 21,100 2,565 Climbing Houston Center
Tue 12:03:57 PM 29.6986 -94.4703 79° East 420 483 23,700 2,323 Climbing Houston Center
Tue 12:04:59 PM 29.7181 -94.3336 81° East 432 497 25,900 1,984 Climbing Houston Center
Tue 12:06:01 PM 29.7006 -94.1653 97° East 442 509 27,800 1,694 Climbing Houston Center
Tue 12:07:03 PM 29.6853 -94.0178 97° East 463 533 29,400 1,548 Climbing Houston Center
Tue 12:08:05 PM 29.6850 -93.8642 90° East 480 552 31,000 1,440 Climbing Houston Center
Tue 12:09:08 PM 29.6839 -93.7078 90° East 489 563 32,400 1,344 Climbing Houston Center
Tue 12:10:10 PM 29.6822 -93.5506 91° East 494 568 33,800 1,452 Climbing Houston Center
Tue 12:11:12 PM 29.6778 -93.3894 92° East 503 579 35,400 1,403 Climbing Houston Center
Tue 12:12:14 PM 29.6758 -93.2178 91° East 500 575 36,700 1,403 Climbing Houston Center
Tue 12:13:16 PM 29.6736 -93.0586 91° East 500 575 38,300 1,113 Climbing Houston Center
Tue 12:14:18 PM 29.6708 -92.8725 91° East 491 565 39,000 339 Climbing Houston Center
Tue 12:15:20 PM 29.6692 -92.7181 91° East 487 560 39,000  Level Houston Center
Tue 12:16:22 PM 29.6656 -92.5622 91° East 489 563 39,000  Level Houston Center
Tue 12:17:25 PM 29.6625 -92.4089 91° East 487 560 39,000  Level Houston Center
Tue 12:18:27 PM 29.6378 -92.2586 101° East 483 556 39,000  Level Houston Center
Tue 12:19:29 PM 29.6031 -92.0761 102° East 487 560 39,000  Level Houston Center
Tue 12:20:31 PM 29.5714 -91.9272 104° East 486 559 39,000  Level Houston Center
Tue 12:21:33 PM 29.5383 -91.7794 104° East 484 557 39,000  Level Houston Center
Tue 12:22:35 PM 29.5075 -91.6286 103° East 484 557 39,000  Level Houston Center
Tue 12:23:37 PM 29.4781 -91.4794 103° East 483 556 39,000  Level Houston Center
Tue 12:24:39 PM 29.4472 -91.3297 103° East 484 557 39,000  Level Houston Center
Tue 12:25:42 PM 29.4081 -91.1492 104° East 484 557 39,000  Level Houston Center
Tue 12:26:44 PM 29.3731 -90.9978 105° East 487 560 39,000  Level Houston Center
Tue 12:27:46 PM 29.3414 -90.8503 104° East 486 559 39,000  Level Houston Center
Tue 12:28:48 PM 29.3081 -90.7014 104° East 485 558 39,000  Level Houston Center
Tue 12:29:50 PM 29.2747 -90.5533 104° East 483 556 39,000  Level Houston Center
Tue 12:30:52 PM 29.2358 -90.3767 104° East 482 555 39,000  Level Houston Center
Tue 12:31:54 PM 29.2022 -90.2303 105° East 480 552 39,000  Level Houston Center
Tue 12:32:56 PM 29.1658 -90.0861 106° East 476 548 39,000  Level Houston Center
Tue 12:33:59 PM 29.1294 -89.9386 106° East 482 555 39,000  Level Houston Center
Tue 12:35:01 PM 29.0931 -89.7917 106° East 481 554 39,000  Level Houston Center
Tue 12:36:03 PM 29.0494 -89.6156 106° East 483 556 39,000  Level Houston Center
Tue 12:37:05 PM 29.0131 -89.4656 105° East 490 564 39,000  Level Houston Center
Tue 12:38:07 PM 28.9761 -89.3186 106° East 486 559 39,000  Level Houston Center
Tue 12:39:09 PM 28.9383 -89.1694 106° East 488 562 39,000  Level Houston Center
Tue 12:40:11 PM 28.9011 -89.0219 106° East 488 562 39,000  Level Houston Center
Tue 12:41:13 PM 28.8553 -88.8428 106° East 490 564 39,000  Level Houston Center
Tue 12:42:16 PM 28.8181 -88.6961 106° East 486 559 39,000  Level Houston Center
Tue 12:43:18 PM 28.7794 -88.5475 106° East 489 563 39,000  Level Houston Center
Tue 12:44:20 PM 28.7411 -88.3975 106° East 492 566 39,000  Level Houston Center
Tue 12:45:22 PM 28.7017 -88.2489 107° East 491 565 39,000  Level Houston Center
Tue 12:46:24 PM 28.6617 -88.1036 107° East 486 559 39,000  Level Houston Center
Tue 12:47:26 PM 28.6172 -87.9219 106° East 495 570 39,000  Level Houston Center
Tue 12:48:28 PM 28.5772 -87.7733 107° East 494 568 39,000  Level Houston Center
Tue 12:49:30 PM 28.5392 -87.6256 106° East 490 564 39,000  Level Houston Center
Tue 12:49:56 PM 28.5219 -87.5653 108° East 492 566 39,000  Level Jacksonville Center
Tue 12:50:55 PM 28.4856 -87.4172 106° East 497 572 39,000  Level Jacksonville Center
Tue 12:51:56 PM 28.4447 -87.2692 107° East 497 572 39,000  Level Jacksonville Center
Tue 12:52:56 PM 28.4039 -87.1186 107° East 496 571 39,000  Level Jacksonville Center
Tue 12:53:55 PM 28.3647 -86.9733 107° East 489 563 39,000  Level Jacksonville Center
Tue 12:54:56 PM 28.3217 -86.8183 107° East 489 563 39,000  Level Jacksonville Center
Tue 12:55:56 PM 28.2803 -86.6706 108° East 494 568 39,000  Level Jacksonville Center
Tue 12:56:55 PM 28.2386 -86.5206 107° East 489 563 39,000  Level Jacksonville Center
Tue 12:57:56 PM 28.1989 -86.3733 107° East 484 557 39,000  Level Jacksonville Center
Tue 12:58:56 PM 28.1589 -86.2283 107° East 490 564 39,000  Level Jacksonville Center
Tue 12:59:55 PM 28.1167 -86.0811 108° East 481 554 39,000  Level Jacksonville Center
Tue 01:00:55 PM 28.0764 -85.9361 107° East 486 559 39,000  Level Jacksonville Center
Tue 01:01:56 PM 28.0361 -85.7892 107° East 486 559 39,000 -306 Level Jacksonville Center
Tue 01:03:32 PM 27.9672 -85.5389 107° East 510 587 38,200 -1,308 Descending Miami Center
Tue 01:04:32 PM 27.9242 -85.3878 108° East 498 573 35,600 -2,600 Descending Miami Center
Tue 01:05:32 PM 27.8833 -85.2344 107° East 498 573 33,000 -1,300 Descending Miami Center
Tue 01:06:32 PM 27.8689 -85.0833 96° East 488 562 33,000  Level Miami Center
Tue 01:07:32 PM 27.8572 -84.9256 95° East 493 567 33,000  Level Miami Center
Tue 01:08:32 PM 27.8617 -84.7711 88° East 493 567 33,000  Level Miami Center
Tue 01:09:32 PM 27.8681 -84.6144 87° East 493 567 33,000 -1,100 Level Miami Center
Tue 01:10:32 PM 27.8722 -84.4597 88° East 498 573 30,800 -2,300 Descending Miami Center
Tue 01:11:32 PM 27.8803 -84.3056 87° East 493 567 28,400 -2,350 Descending Miami Center
Tue 01:12:32 PM 27.8814 -84.1603 89° East 487 560 26,100 -2,250 Descending Miami Center
Tue 01:13:32 PM 27.8906 -84.0222 86° East 461 531 23,900 -2,100 Descending Miami Center
Tue 01:14:32 PM 27.8908 -83.8864 90° East 438 504 21,900 -2,000 Descending Miami Center
Tue 01:15:32 PM 27.8950 -83.7575 88° East 418 481 19,900 -1,950 Descending Miami Center
Tue 01:16:32 PM 27.8986 -83.6381 88° East 403 464 18,000 -1,950 Descending Miami Center
Tue 01:17:32 PM 27.9000 -83.5183 89° East 382 440 16,000 -2,000 Descending Miami Center
Tue 01:18:32 PM 27.9053 -83.4036 87° East 377 434 14,000 -2,000 Descending Miami Center
Tue 01:19:32 PM 27.9083 -83.2936 88° East 364 419 12,000 -1,850 Descending Miami Center
Tue 01:20:32 PM 27.9131 -83.1858 87° East 352 405 10,300 -1,250 Descending Miami Center
Tue 01:21:32 PM 27.9419 -83.0958 70° East 310 357 9,500 -900 Descending Miami Center
Tue 01:22:32 PM 27.9808 -83.0158 61° Northeast 297 342 8,500 -1,150 Descending Miami Center
Tue 01:23:32 PM 28.0439 -82.9581 39° Northeast 283 326 7,200 -1,250 Descending Miami Center
Tue 01:24:32 PM 28.1042 -82.9097 35° Northeast 273 314 6,000 -699 Descending Miami Center
Tue 01:25:15 PM 28.1500 -82.8667 40° Northeast 247 284 6,000  Level Tampa TRACON
Tue 01:26:15 PM 28.1667 -82.8167 69° East 226 260 6,000  Level Tampa TRACON
Tue 01:27:15 PM 28.1833 -82.7333 77° East 226 260 6,000 -50 Level Tampa TRACON
Tue 01:28:15 PM 28.2000 -82.6667 74° East 224 258 5,900 -684 Descending Tampa TRACON
Tue 01:29:09 PM 28.2000 -82.6000 90° East 216 249 4,700 -1,357 Descending Tampa TRACON
Tue 01:30:10 PM 28.1833 -82.5500 111° Southeast 211 243 3,300 -1,286 Descending Tampa TRACON
Tue 01:31:15 PM 28.1167 -82.5333 168° South 205 236 2,000 -800 Descending Tampa TRACON
Tue 01:32:10 PM 28.0667 -82.5333 180° South 162 186 1,700 -550 Descending Tampa TRACON
Tue 01:33:15 PM 28.0333 -82.5333 180° South 150 173 900 -738 Descending Tampa TRACON
Tue 01:35:00 PM 27.9755 -82.5332 186° South  Level Estimated
Tue 01:42:00 PM 27.9755 -82.5332 19° North  Level Estimated
Tue 01:43:00 PM 27.9755 -82.5332 19° North  Level Estimated

Login

Don't have an account? Register now (free) for customized features, flight alerts, and more!